Time;durP1;ratioP1;P1;durP2;ratioP2;P2;SDS_P1;SDS_P2;PMS_P1;PMS_P2;Temp;Humidity;BMP_temperature;BMP_pressure;BME280_temperature;BME280_humidity;BME280_pressure;Samples;Min_cycle;Max_cycle;Signal;HPM_P1;HPM_P2
2022/08/09 00:03:05;;;;;;;7.05;2.35;;;;;;;19.21;76.25;101501.06;8357290;28;20033;-46
2022/08/09 00:07:06;;;;;;;15.40;2.73;;;;;;;19.16;76.70;101497.16;8358783;28;20040;-49
2022/08/09 00:11:06;;;;;;;5.60;2.40;;;;;;;19.09;77.02;101502.44;8361606;28;20307;-47
2022/08/09 00:15:07;;;;;;;7.22;3.10;;;;;;;19.04;77.47;101499.38;8360763;28;20279;-46
2022/08/09 00:19:08;;;;;;;8.63;3.00;;;;;;;18.97;77.80;101503.81;8360015;28;20543;-47
2022/08/09 00:23:08;;;;;;;7.57;3.13;;;;;;;18.98;77.91;101497.31;8359765;28;20037;-46
2022/08/09 00:27:08;;;;;;;13.73;4.22;;;;;;;18.94;78.07;101484.97;8360582;28;20095;-47
2022/08/09 00:31:09;;;;;;;9.97;3.20;;;;;;;18.75;78.67;101493.53;8361221;28;20040;-50
2022/08/09 00:35:09;;;;;;;9.38;3.92;;;;;;;18.77;78.90;101491.50;8358196;28;20276;-47
2022/08/09 00:39:10;;;;;;;10.10;3.35;;;;;;;18.73;78.71;101484.59;8358893;28;20044;-47
2022/08/09 00:43:11;;;;;;;10.48;3.80;;;;;;;18.72;79.05;101488.38;8359047;28;20235;-47
2022/08/09 00:47:11;;;;;;;8.43;2.97;;;;;;;18.76;78.79;101497.97;8360806;28;20119;-50
2022/08/09 00:51:15;;;;;;;11.18;3.58;;;;;;;18.75;78.71;101503.63;8360161;28;20032;-47
2022/08/09 00:55:15;;;;;;;6.93;3.35;;;;;;;18.74;78.85;101501.91;8359041;28;20029;-47
2022/08/09 00:59:16;;;;;;;6.50;3.45;;;;;;;18.73;79.07;101501.06;8359117;28;20512;-50
2022/08/09 01:03:30;;;;;;;7.32;2.65;;;;;;;18.74;78.76;101499.19;8359367;28;20040;-47
2022/08/09 01:07:40;;;;;;;8.13;2.90;;;;;;;18.79;78.69;101505.03;8360113;28;20037;-49
2022/08/09 01:12:20;;;;;;;5.75;3.03;;;;;;;18.75;78.87;101504.50;8357039;28;20069;-47
2022/08/09 01:16:25;;;;;;;7.65;3.00;;;;;;;18.73;78.87;101506.53;8354927;28;20037;-47
2022/08/09 01:21:05;;;;;;;6.60;3.92;;;;;;;18.54;79.58;101500.53;8358167;28;20041;-50
2022/08/09 01:29:55;;;;;;;9.40;4.13;;;;;;;18.30;81.15;101500.44;8303963;28;20906;-46
2022/08/09 01:33:59;;;;;;;6.75;3.67;;;;;;;18.20;81.45;101495.06;8287243;28;20034;-46
2022/08/09 01:38:05;;;;;;;7.93;3.75;;;;;;;18.17;81.77;101498.16;8286670;28;20061;-50
2022/08/09 01:42:07;;;;;;;7.80;3.60;;;;;;;18.17;81.69;101498.16;8286513;28;20061;-51
2022/08/09 01:46:09;;;;;;;10.32;4.13;;;;;;;18.16;82.29;101490.09;8286538;28;20053;-47
2022/08/09 01:50:11;;;;;;;7.45;4.22;;;;;;;18.03;82.93;101484.25;8286678;28;20042;-48
2022/08/09 01:54:14;;;;;;;9.57;3.70;;;;;;;17.97;82.94;101493.09;8283050;28;20057;-48
2022/08/09 01:58:15;;;;;;;5.20;3.30;;;;;;;17.92;83.12;101493.59;8286717;28;20042;-47
2022/08/09 02:02:19;;;;;;;9.20;4.03;;;;;;;17.99;83.06;101494.66;8286220;28;20034;-49
2022/08/09 02:07:07;;;;;;;8.88;3.90;;;;;;;17.96;83.05;101494.97;8279891;28;20117;-49
2022/08/09 02:10:44;;;;;;;8.48;4.00;;;;;;;17.84;83.60;101490.81;8281217;28;20040;-49
2022/08/09 02:14:48;;;;;;;5.72;3.97;;;;;;;17.79;83.84;101493.19;8284644;28;20446;-47
2022/08/09 02:18:50;;;;;;;7.68;4.10;;;;;;;17.76;84.24;101487.19;8286233;28;20038;-49
2022/08/09 02:23:13;;;;;;;5.65;4.03;;;;;;;17.78;84.58;101486.00;8285951;28;20030;-49
2022/08/09 02:27:17;;;;;;;6.47;4.13;;;;;;;17.76;84.46;101492.66;8284061;28;20053;-48
2022/08/09 02:31:20;;;;;;;8.63;4.63;;;;;;;17.77;84.56;101492.50;8285172;28;20054;-48
2022/08/09 02:35:24;;;;;;;13.63;4.15;;;;;;;17.62;84.84;101496.84;8284949;28;20042;-48
2022/08/09 02:39:29;;;;;;;10.90;4.43;;;;;;;17.59;85.53;101491.72;8272649;28;20046;-48
2022/08/09 02:43:33;;;;;;;10.75;4.40;;;;;;;17.52;85.77;101490.66;8263207;28;20391;-48
2022/08/09 02:47:35;;;;;;;10.23;3.70;;;;;;;17.57;85.91;101491.88;8263275;28;20065;-49
2022/08/09 02:51:40;;;;;;;6.20;4.07;;;;;;;17.53;86.01;101493.22;8260802;28;20502;-51
2022/08/09 02:55:44;;;;;;;7.88;3.25;;;;;;;17.53;86.30;101493.22;8258141;28;20113;-48
2022/08/09 02:59:46;;;;;;;10.88;3.85;;;;;;;17.56;86.13;101494.75;8261758;28;20117;-47
2022/08/09 03:03:48;;;;;;;5.57;3.40;;;;;;;17.53;86.31;101486.88;8261067;28;20038;-48
2022/08/09 03:07:50;;;;;;;15.25;3.95;;;;;;;17.49;86.84;101491.84;8261640;28;20062;-48
2022/08/09 03:11:51;;;;;;;8.63;3.53;;;;;;;17.38;87.09;101499.41;8261979;28;20490;-48
2022/08/09 03:15:54;;;;;;;9.15;3.78;;;;;;;17.39;87.48;101499.22;8260606;28;20513;-49
2022/08/09 03:19:58;;;;;;;7.22;4.45;;;;;;;17.33;87.69;101501.78;8260150;28;20517;-51
2022/08/09 03:23:58;;;;;;;14.10;4.15;;;;;;;17.34;87.97;101498.00;8260369;28;20041;-48
2022/08/09 03:28:00;;;;;;;10.75;3.22;;;;;;;17.39;87.86;101491.03;8260992;28;20054;-48
2022/08/09 03:32:02;;;;;;;6.65;3.78;;;;;;;17.31;88.19;101501.06;8262559;28;20117;-47
2022/08/09 03:36:06;;;;;;;11.57;4.65;;;;;;;17.25;88.49;101498.97;8260913;28;20054;-48
2022/08/09 03:40:07;;;;;;;7.10;3.55;;;;;;;17.24;88.77;101502.72;8254711;28;20391;-48
2022/08/09 03:44:08;;;;;;;9.40;4.25;;;;;;;17.26;88.79;101495.25;8261361;28;20486;-51
2022/08/09 03:48:08;;;;;;;9.80;4.07;;;;;;;17.24;88.93;101508.19;8262015;28;20129;-46
2022/08/09 03:52:10;;;;;;;8.13;4.13;;;;;;;17.22;89.21;101505.63;8260544;28;20316;-47
2022/08/09 03:56:10;;;;;;;6.88;3.72;;;;;;;17.20;89.56;101507.66;8259534;28;20034;-50
2022/08/09 04:00:11;;;;;;;11.52;4.72;;;;;;;17.12;89.75;101521.25;8258266;28;20050;-47
2022/08/09 04:04:12;;;;;;;8.40;3.67;;;;;;;17.21;89.79;101513.97;8260761;28;20042;-47
2022/08/09 04:08:12;;;;;;;11.88;4.00;;;;;;;17.17;89.99;101529.00;8249706;28;20046;-47
2022/08/09 04:12:18;;;;;;;8.18;4.00;;;;;;;17.12;90.42;101528.59;8259866;28;20456;-49
2022/08/09 04:16:18;;;;;;;6.47;3.35;;;;;;;16.93;90.94;101535.06;8259875;28;20049;-48
2022/08/09 04:20:19;;;;;;;13.18;4.28;;;;;;;16.56;92.57;101528.91;8260408;28;20030;-47
2022/08/09 04:24:19;;;;;;;10.65;4.55;;;;;;;16.31;94.10;101536.97;8263587;28;20030;-49
2022/08/09 04:28:21;;;;;;;11.32;5.45;;;;;;;16.28;95.12;101538.09;8259426;28;20053;-47
2022/08/09 04:32:22;;;;;;;7.82;4.88;;;;;;;16.06;97.19;101540.38;8260467;28;20049;-49
2022/08/09 04:36:25;;;;;;;14.77;6.45;;;;;;;16.06;97.76;101545.81;8258230;28;20026;-47
2022/08/09 04:40:47;;;;;;;25.63;5.90;;;;;;;16.20;97.02;101545.34;8258558;28;20038;-47
2022/08/09 04:44:45;;;;;;;22.48;5.55;;;;;;;16.18;98.05;101547.34;8252662;28;20105;-48
2022/08/09 04:48:46;;;;;;;13.70;5.57;;;;;;;16.34;97.05;101555.72;8256097;28;20038;-47
2022/08/09 04:52:47;;;;;;;14.48;4.72;;;;;;;16.57;95.88;101552.47;8254838;28;20044;-47
2022/08/09 04:56:47;;;;;;;19.23;5.23;;;;;;;16.83;94.57;101558.03;8256589;28;20402;-47
2022/08/09 05:00:47;;;;;;;9.70;5.22;;;;;;;17.02;92.91;101568.81;8254609;28;20317;-50
2022/08/09 05:04:48;;;;;;;11.20;4.32;;;;;;;17.26;92.03;101558.09;8255978;28;20113;-47
2022/08/09 05:08:48;;;;;;;10.30;4.30;;;;;;;17.32;91.69;101560.19;8256019;28;20034;-49
2022/08/09 05:12:49;;;;;;;11.75;4.47;;;;;;;17.38;91.73;101559.53;8255707;28;20454;-47
2022/08/09 05:16:50;;;;;;;9.45;3.83;;;;;;;17.77;89.68;101558.16;8254183;28;20393;-47
2022/08/09 05:20:50;;;;;;;12.38;4.38;;;;;;;17.80;89.82;101566.03;8255532;28;20031;-50
2022/08/09 05:24:50;;;;;;;9.02;4.43;;;;;;;17.94;88.93;101557.25;8254488;28;20080;-47
2022/08/09 05:28:51;;;;;;;11.13;3.90;;;;;;;18.18;87.46;101575.66;8252635;28;20494;-49
2022/08/09 05:32:52;;;;;;;16.52;4.43;;;;;;;18.38;87.94;101567.06;8254507;28;20384;-47
2022/08/09 05:36:55;;;;;;;13.73;4.53;;;;;;;18.48;87.59;101570.50;8254908;28;20038;-47
2022/08/09 05:40:55;;;;;;;7.95;4.13;;;;;;;18.75;86.22;101570.25;8251900;28;20134;-49
2022/08/09 05:44:56;;;;;;;6.90;3.60;;;;;;;18.92;85.57;101572.00;8250947;28;20034;-48
2022/08/09 05:48:56;;;;;;;8.68;3.53;;;;;;;19.20;85.33;101570.66;8255709;28;20070;-47
2022/08/09 05:52:56;;;;;;;6.40;4.17;;;;;;;19.45;83.82;101566.06;8255337;28;20042;-47
2022/08/09 05:56:58;;;;;;;8.10;3.72;;;;;;;19.74;81.68;101581.97;8254623;28;20285;-46
2022/08/09 06:00:58;;;;;;;7.82;3.50;;;;;;;19.79;80.87;101574.09;8254483;28;20034;-48
2022/08/09 06:04:58;;;;;;;14.77;3.40;;;;;;;20.00;80.53;101577.16;8255823;28;20046;-47
2022/08/09 06:08:59;;;;;;;8.80;3.95;;;;;;;20.19;79.67;101585.00;8255280;28;20274;-48
2022/08/09 06:12:59;;;;;;;11.63;3.47;;;;;;;20.44;79.04;101578.38;8253815;28;20411;-49
2022/08/09 06:17:00;;;;;;;10.63;3.80;;;;;;;20.61;77.38;101574.50;8260567;28;20026;-47
2022/08/09 06:21:00;;;;;;;10.20;3.78;;;;;;;20.43;77.25;101587.66;8261540;28;20884;-49
2022/08/09 06:25:01;;;;;;;11.13;4.75;;;;;;;20.49;77.58;101586.97;8262552;28;20038;-49
2022/08/09 06:29:01;;;;;;;8.48;4.22;;;;;;;20.42;77.90;101586.78;8263064;28;20148;-49
2022/08/09 06:33:02;;;;;;;12.77;4.75;;;;;;;20.46;77.73;101587.31;8261625;28;20517;-46
2022/08/09 06:37:02;;;;;;;12.68;3.90;;;;;;;20.51;77.67;101593.97;8261210;28;20422;-51
2022/08/09 06:41:04;;;;;;;10.68;3.80;;;;;;;20.56;76.69;101587.94;8263383;28;20066;-48
2022/08/09 06:45:06;;;;;;;9.70;3.55;;;;;;;20.79;76.19;101591.59;8256490;28;20499;-50
2022/08/09 06:49:06;;;;;;;6.72;4.07;;;;;;;20.89;76.07;101594.97;8263123;28;20502;-48
2022/08/09 06:53:07;;;;;;;6.28;3.85;;;;;;;20.92;75.66;101595.47;8261550;28;20445;-50
2022/08/09 06:57:08;;;;;;;5.57;3.40;;;;;;;21.21;75.15;101605.78;8262201;28;20103;-49
2022/08/09 07:01:08;;;;;;;7.85;3.45;;;;;;;21.41;74.88;101604.28;8260510;28;20046;-50
2022/08/09 07:05:08;;;;;;;12.57;3.83;;;;;;;21.40;73.95;101610.78;8262832;28;20380;-48
2022/08/09 07:09:11;;;;;;;11.88;3.60;;;;;;;21.96;72.64;101604.78;8262041;28;20377;-49
2022/08/09 07:13:11;;;;;;;7.15;2.88;;;;;;;22.10;71.24;101611.38;8261912;28;20062;-49
2022/08/09 07:17:13;;;;;;;5.75;3.40;;;;;;;22.40;69.84;101610.34;8261942;28;20617;-49
2022/08/09 07:21:13;;;;;;;4.55;3.05;;;;;;;22.52;68.68;101620.75;8261273;28;20050;-48
2022/08/09 07:25:13;;;;;;;5.40;3.13;;;;;;;22.92;67.75;101617.44;8261666;28;20044;-48
2022/08/09 07:29:14;;;;;;;6.90;3.00;;;;;;;23.15;66.01;101607.06;8260077;28;20046;-51
2022/08/09 07:33:15;;;;;;;10.93;2.83;;;;;;;22.98;66.64;101605.63;8261179;28;20073;-49
2022/08/09 07:37:15;;;;;;;6.55;3.25;;;;;;;23.02;65.73;101606.06;8260554;28;20093;-48
2022/08/09 07:41:15;;;;;;;6.30;2.87;;;;;;;23.41;65.37;101600.16;8261795;28;20046;-49
2022/08/09 07:45:16;;;;;;;5.38;2.90;;;;;;;23.42;65.56;101607.41;8259909;28;20304;-49
2022/08/09 07:49:16;;;;;;;4.68;3.15;;;;;;;23.63;64.21;101607.41;8256414;28;20042;-47
2022/08/09 07:53:17;;;;;;;4.97;2.58;;;;;;;23.50;64.42;101590.69;8258627;28;20116;-48
2022/08/09 07:57:17;;;;;;;4.03;3.08;;;;;;;23.65;63.90;101596.97;8259839;28;20038;-47
2022/08/09 08:01:18;;;;;;;5.03;3.00;;;;;;;23.50;64.17;101598.97;8256249;28;20074;-50
2022/08/09 08:05:19;;;;;;;4.20;2.70;;;;;;;24.12;62.99;101592.50;8259275;28;20034;-49
2022/08/09 08:09:19;;;;;;;4.93;2.58;;;;;;;24.36;61.86;101596.69;8259535;28;20100;-51
2022/08/09 08:13:20;;;;;;;7.13;2.80;;;;;;;24.32;62.76;101592.63;8260569;28;20154;-49
2022/08/09 08:17:20;;;;;;;9.40;3.35;;;;;;;24.35;62.05;101593.09;8260216;28;20042;-50
2022/08/09 08:21:20;;;;;;;4.30;2.75;;;;;;;24.42;62.27;101606.91;8260240;28;20113;-48
2022/08/09 08:25:21;;;;;;;7.20;3.27;;;;;;;24.66;61.79;101598.16;8260080;28;20193;-47
2022/08/09 08:29:23;;;;;;;5.03;3.03;;;;;;;24.90;61.36;101600.38;8259805;28;20050;-49
2022/08/09 08:33:23;;;;;;;3.85;2.58;;;;;;;24.82;61.08;101603.31;8258883;28;20430;-48
2022/08/09 08:37:25;;;;;;;7.03;2.83;;;;;;;25.01;61.02;101602.56;8257041;28;20046;-52
2022/08/09 08:41:26;;;;;;;6.47;2.92;;;;;;;24.76;60.51;101605.00;8259264;28;20030;-48
2022/08/09 08:45:32;;;;;;;15.68;4.28;;;;;;;24.93;59.99;101597.19;8256749;28;20526;-48
2022/08/09 08:49:36;;;;;;;5.43;2.38;;;;;;;25.81;59.06;101595.03;8257262;28;20048;-48
2022/08/09 08:53:37;;;;;;;13.60;3.30;;;;;;;25.36;58.47;101598.63;8258113;28;20035;-47
2022/08/09 08:57:38;;;;;;;5.45;3.00;;;;;;;25.72;57.63;101604.63;8258536;28;20869;-48
2022/08/09 09:01:43;;;;;;;4.68;2.80;;;;;;;25.49;57.42;101593.09;8253696;28;20465;-49
2022/08/09 09:05:45;;;;;;;5.72;2.67;;;;;;;26.10;56.52;101594.59;8256013;28;20081;-48
2022/08/09 09:09:47;;;;;;;4.68;2.30;;;;;;;26.34;55.81;101602.25;8257464;28;20374;-47
2022/08/09 09:13:52;;;;;;;4.65;2.50;;;;;;;26.40;55.75;101595.81;8256251;28;20034;-47
2022/08/09 09:17:53;;;;;;;9.23;2.60;;;;;;;26.70;54.14;101608.13;8257044;28;20045;-48
2022/08/09 09:22:15;;;;;;;4.68;2.83;;;;;;;26.68;55.03;101604.72;8255846;28;20172;-48
2022/08/09 09:26:21;;;;;;;7.60;2.15;;;;;;;26.96;53.98;101598.00;8256029;28;20065;-49
2022/08/09 09:30:21;;;;;;;5.55;2.78;;;;;;;26.83;53.09;101596.97;8257763;28;20042;-48
2022/08/09 09:34:22;;;;;;;4.43;2.58;;;;;;;27.19;53.27;101599.13;8256687;28;20037;-49
2022/08/09 09:38:37;;;;;;;6.05;2.47;;;;;;;27.47;51.75;101593.22;8255489;28;20058;-50
2022/08/09 09:42:38;;;;;;;3.80;2.40;;;;;;;27.43;51.50;101597.50;8255331;28;20461;-48
2022/08/09 09:46:41;;;;;;;4.82;2.70;;;;;;;27.29;52.10;101595.91;8256642;28;20085;-47
2022/08/09 09:50:43;;;;;;;4.33;2.47;;;;;;;27.59;51.29;101589.47;8262784;28;20030;-53
2022/08/09 09:54:47;;;;;;;9.60;3.20;;;;;;;28.23;49.78;101594.69;8264444;28;20037;-48
2022/08/09 09:58:48;;;;;;;6.43;2.60;;;;;;;30.03;46.91;101599.94;8264357;28;20049;-49
2022/08/09 10:02:48;;;;;;;6.82;2.70;;;;;;;30.55;46.09;101591.69;8263025;28;20066;-50
2022/08/09 10:06:48;;;;;;;3.58;2.47;;;;;;;31.71;44.09;101592.94;8260829;28;20137;-51
2022/08/09 10:10:50;;;;;;;7.70;2.35;;;;;;;32.59;43.26;101588.22;8261467;28;20178;-50
2022/08/09 10:14:51;;;;;;;5.80;2.78;;;;;;;31.75;43.91;101594.13;8260444;28;20750;-49
2022/08/09 10:18:53;;;;;;;4.78;2.30;;;;;;;33.05;42.67;101584.09;8261195;28;20042;-49
2022/08/09 10:22:54;;;;;;;4.93;2.70;;;;;;;32.97;42.38;101591.00;8263078;28;20079;-51
2022/08/09 10:26:56;;;;;;;4.95;2.60;;;;;;;33.49;41.24;101589.38;8262809;28;20050;-51
2022/08/09 10:30:58;;;;;;;7.45;2.50;;;;;;;33.45;41.14;101585.38;8263377;28;20092;-51
2022/08/09 10:34:59;;;;;;;5.25;2.42;;;;;;;33.39;41.57;101597.66;8263365;28;20425;-51
2022/08/09 10:39:01;;;;;;;5.93;2.50;;;;;;;33.71;41.01;101589.25;8265101;28;20038;-49
2022/08/09 10:43:01;;;;;;;5.38;2.10;;;;;;;33.44;41.14;101578.06;8263527;28;20054;-52
2022/08/09 10:47:41;;;;;;;5.15;2.30;;;;;;;33.85;40.35;101580.13;8263744;28;20521;-49
2022/08/09 10:52:04;;;;;;;4.88;2.20;;;;;;;33.25;41.30;101568.31;8255694;28;20030;-48
2022/08/09 10:56:23;;;;;;;2.50;2.20;;;;;;;34.08;40.38;101564.03;8263459;28;20490;-50
2022/08/09 11:00:41;;;;;;;4.22;2.38;;;;;;;34.18;40.18;101562.13;8262147;28;20041;-49
2022/08/09 11:04:42;;;;;;;5.95;2.20;;;;;;;33.89;40.10;101575.72;8262083;28;20097;-51
2022/08/09 11:08:44;;;;;;;6.95;2.22;;;;;;;33.81;40.11;101572.50;8262838;28;20038;-50
2022/08/09 11:13:13;;;;;;;5.13;2.78;;;;;;;33.93;40.34;101571.25;8262581;28;20030;-49
2022/08/09 11:17:36;;;;;;;5.22;2.10;;;;;;;33.88;39.81;101568.38;8262327;28;20038;-51
2022/08/09 11:21:51;;;;;;;8.25;2.72;;;;;;;33.71;40.16;101564.88;8257662;28;20142;-49
2022/08/09 11:25:51;;;;;;;5.68;2.17;;;;;;;33.65;41.25;101560.31;8258443;28;20030;-47
2022/08/09 11:29:54;;;;;;;4.13;2.00;;;;;;;33.83;40.81;101559.91;8260214;28;20042;-51
2022/08/09 11:33:56;;;;;;;7.45;2.30;;;;;;;33.55;40.43;101563.06;8260469;28;20510;-47
2022/08/09 11:38:13;;;;;;;3.47;2.10;;;;;;;34.47;39.53;101569.09;8261798;28;20049;-47
2022/08/09 11:42:37;;;;;;;4.60;2.28;;;;;;;35.07;38.74;101565.72;8256792;28;20048;-47
2022/08/09 11:46:59;;;;;;;8.80;1.83;;;;;;;33.68;39.88;101561.75;8261297;28;20097;-50
2022/08/09 11:51:03;;;;;;;3.75;2.08;;;;;;;33.55;39.90;101560.25;8261441;28;20042;-50
2022/08/09 11:55:40;;;;;;;3.30;2.03;;;;;;;33.86;39.82;101545.34;8261035;28;20050;-48
2022/08/09 11:59:40;;;;;;;2.97;1.83;;;;;;;33.74;39.94;101539.06;8249684;28;20466;-48
2022/08/09 12:03:42;;;;;;;2.70;2.05;;;;;;;32.70;41.09;101545.22;8258452;28;20081;-52
2022/08/09 12:07:43;;;;;;;5.80;2.03;;;;;;;31.24;42.40;101541.16;8258863;28;20122;-49
2022/08/09 12:11:55;;;;;;;3.63;2.05;;;;;;;29.83;44.17;101538.06;8258394;28;20504;-48
2022/08/09 12:15:59;;;;;;;3.67;2.25;;;;;;;29.25;45.63;101533.47;8258306;28;20170;-49
2022/08/09 12:20:09;;;;;;;3.53;2.08;;;;;;;29.42;45.86;101532.53;8258082;28;20034;-48
2022/08/09 12:24:11;;;;;;;3.60;2.10;;;;;;;29.08;45.70;101524.94;8257935;28;20046;-50
2022/08/09 12:28:15;;;;;;;9.13;2.47;;;;;;;29.07;45.47;101520.44;8257791;28;20422;-48
2022/08/09 12:32:15;;;;;;;;;;;;;;;29.02;45.63;101517.47;8258234;28;20070;-47
2022/08/09 12:36:17;;;;;;;4.47;2.40;;;;;;;29.16;45.41;101518.16;8257689;28;19929;-50
2022/08/09 12:40:19;;;;;;;4.70;1.90;;;;;;;29.25;45.82;101516.75;8257344;28;20050;-52
2022/08/09 12:44:20;;;;;;;3.10;1.98;;;;;;;29.08;46.15;101516.56;8257829;28;20126;-49
2022/08/09 12:48:22;;;;;;;3.83;2.38;;;;;;;29.19;45.98;101510.19;8257865;28;20041;-50
2022/08/09 12:52:23;;;;;;;6.57;2.05;;;;;;;29.40;46.52;101500.41;8257291;28;20395;-49
2022/08/09 12:56:23;;;;;;;4.97;2.38;;;;;;;29.38;45.84;101500.66;8257567;28;20046;-47
2022/08/09 13:00:31;;;;;;;4.97;2.30;;;;;;;28.95;46.97;101500.03;8251906;28;20050;-51
2022/08/09 13:04:33;;;;;;;3.70;1.90;;;;;;;29.04;46.47;101504.22;8253713;28;21151;-48
2022/08/09 13:08:33;;;;;;;5.20;2.30;;;;;;;29.03;45.57;101502.47;8255918;28;20561;-51
2022/08/09 13:12:46;;;;;;;4.15;1.92;;;;;;;29.18;46.33;101496.50;8253923;28;20502;-48
2022/08/09 13:16:53;;;;;;;8.77;2.00;;;;;;;29.15;46.59;101492.22;8253557;28;20166;-49
2022/08/09 13:20:55;;;;;;;5.20;1.83;;;;;;;29.46;46.09;101486.34;8253983;28;20122;-48
2022/08/09 13:29:20;;;;;;;5.32;1.90;;;;;;;29.27;45.68;101470.81;8386474;27;20953;-47
2022/08/09 13:33:23;;;;;;;3.50;2.00;;;;;;;29.16;45.94;101468.88;8363925;28;20032;-48
2022/08/09 13:37:23;;;;;;;4.75;2.13;;;;;;;29.42;45.59;101465.63;8358060;28;20037;-48
2022/08/09 13:41:25;;;;;;;6.60;1.77;;;;;;;29.21;45.60;101455.06;8365513;28;20051;-48
2022/08/09 13:45:25;;;;;;;4.53;2.15;;;;;;;29.66;44.92;101453.44;8361767;28;20068;-49
2022/08/09 13:49:26;;;;;;;4.13;1.90;;;;;;;29.16;45.04;101454.09;8363903;28;20045;-48
2022/08/09 13:53:26;;;;;;;5.40;1.80;;;;;;;29.22;44.71;101451.19;8364328;28;20028;-48
2022/08/09 13:57:28;;;;;;;2.72;1.98;;;;;;;29.33;44.78;101447.56;8367184;28;20474;-48
2022/08/09 14:01:29;;;;;;;5.13;1.90;;;;;;;29.61;43.64;101455.22;8368919;28;20041;-51
2022/08/09 14:05:29;;;;;;;5.80;2.10;;;;;;;29.42;43.79;101460.06;8363794;28;20052;-48
2022/08/09 14:09:30;;;;;;;2.58;1.73;;;;;;;29.10;44.15;101444.75;8369220;28;20032;-48
2022/08/09 14:13:31;;;;;;;2.90;1.88;;;;;;;29.42;44.44;101446.13;8368734;28;20361;-49
2022/08/09 14:17:32;;;;;;;2.00;1.55;;;;;;;29.30;44.36;101448.03;8375241;28;20083;-48
2022/08/09 14:21:32;;;;;;;4.43;1.70;;;;;;;29.27;44.12;101437.38;8377723;28;20029;-50
2022/08/09 14:25:33;;;;;;;3.10;1.80;;;;;;;30.15;44.52;101433.34;8375837;28;20037;-50
2022/08/09 14:29:33;;;;;;;5.80;1.83;;;;;;;29.47;43.50;101454.63;8375573;28;20299;-51
2022/08/09 14:33:34;;;;;;;3.65;1.27;;;;;;;29.43;43.59;101442.22;8375929;28;20045;-48
2022/08/09 14:37:34;;;;;;;4.07;1.83;;;;;;;29.49;44.07;101432.91;8371268;28;20116;-50
2022/08/09 14:41:35;;;;;;;2.78;1.60;;;;;;;29.77;43.87;101433.06;8356995;28;20283;-49
2022/08/09 14:45:35;;;;;;;3.97;1.92;;;;;;;29.68;43.53;101431.75;8343897;28;20148;-48
2022/08/09 14:49:36;;;;;;;6.27;1.83;;;;;;;29.41;44.22;101433.28;8337095;28;20049;-49
2022/08/09 14:53:37;;;;;;;7.55;1.67;;;;;;;29.41;43.88;101426.84;8356551;28;20272;-49
2022/08/09 14:57:37;;;;;;;5.43;2.08;;;;;;;29.38;44.47;101439.34;8357425;28;20029;-49
2022/08/09 15:01:38;;;;;;;4.60;1.77;;;;;;;29.62;44.12;101431.84;8356488;28;20136;-48
2022/08/09 15:05:39;;;;;;;2.95;1.60;;;;;;;29.70;43.39;101432.31;8350570;28;20072;-49
2022/08/09 15:09:40;;;;;;;4.65;1.77;;;;;;;29.67;43.55;101427.22;8337577;28;20034;-49
2022/08/09 15:13:40;;;;;;;7.60;1.88;;;;;;;29.41;43.95;101427.72;8355196;28;20409;-49
2022/08/09 15:17:40;;;;;;;5.67;1.50;;;;;;;29.73;43.63;101431.84;8354794;28;20033;-49
2022/08/09 15:21:41;;;;;;;3.30;1.70;;;;;;;29.86;43.45;101425.16;8328669;28;21745;-50
2022/08/09 15:25:41;;;;;;;3.97;1.63;;;;;;;29.52;44.25;101418.47;8302829;28;20332;-48
2022/08/09 15:29:43;;;;;;;5.05;1.95;;;;;;;29.21;44.23;101415.22;8319268;28;20493;-50
2022/08/09 15:33:44;;;;;;;2.20;1.73;;;;;;;29.42;44.41;101417.38;8298809;28;20032;-48
2022/08/09 15:37:46;;;;;;;4.43;1.77;;;;;;;29.47;43.60;101404.44;8304252;28;20343;-50
2022/08/09 15:41:46;;;;;;;3.40;1.65;;;;;;;29.32;44.45;101406.88;8305055;28;20155;-49
2022/08/09 15:45:47;;;;;;;3.65;1.60;;;;;;;29.52;44.19;101401.75;8302589;28;20147;-48
2022/08/09 15:49:47;;;;;;;1.80;1.52;;;;;;;29.65;44.15;101395.97;8301384;28;20037;-49
2022/08/09 15:53:47;;;;;;;3.78;1.80;;;;;;;29.70;44.00;101392.47;8341620;28;20056;-49
2022/08/09 15:57:49;;;;;;;5.03;1.52;;;;;;;29.53;43.80;101394.25;8352311;28;20057;-50
2022/08/09 16:01:49;;;;;;;5.07;1.83;;;;;;;29.61;43.99;101389.16;8352849;28;20051;-51
2022/08/09 16:05:49;;;;;;;3.00;1.80;;;;;;;29.53;43.69;101389.53;8353878;28;20513;-53
2022/08/09 16:09:50;;;;;;;3.72;1.70;;;;;;;29.83;44.07;101404.19;8353686;28;20033;-48
2022/08/09 16:13:50;;;;;;;2.73;1.80;;;;;;;29.46;44.14;101383.22;8353801;28;20040;-47
2022/08/09 16:17:51;;;;;;;6.03;1.73;;;;;;;29.50;44.16;101395.59;8352911;28;20342;-49
2022/08/09 16:21:51;;;;;;;3.92;2.17;;;;;;;29.49;44.32;101391.09;8352708;28;20334;-50
2022/08/09 16:25:52;;;;;;;5.40;1.50;;;;;;;29.52;44.80;101387.81;8347617;28;20487;-51
2022/08/09 16:29:52;;;;;;;5.35;1.55;;;;;;;29.63;44.37;101380.56;8353311;28;20040;-48
2022/08/09 16:33:53;;;;;;;3.33;1.70;;;;;;;29.62;44.88;101398.41;8353130;28;20144;-48
2022/08/09 16:37:53;;;;;;;4.20;1.85;;;;;;;29.43;45.10;101392.06;8350635;28;20323;-50
2022/08/09 16:41:53;;;;;;;4.05;2.08;;;;;;;29.45;44.77;101384.31;8346316;28;20029;-48
2022/08/09 16:45:54;;;;;;;3.78;2.00;;;;;;;29.40;45.00;101386.97;8345307;28;20567;-48
2022/08/09 16:49:55;;;;;;;2.17;1.77;;;;;;;29.27;45.49;101375.25;8347579;28;20052;-48
2022/08/09 16:53:55;;;;;;;2.45;1.77;;;;;;;29.38;45.02;101389.19;8349118;28;20220;-48
2022/08/09 16:57:56;;;;;;;6.88;2.00;;;;;;;29.25;44.90;101389.44;8349042;28;20402;-49
2022/08/09 17:01:56;;;;;;;6.97;2.33;;;;;;;29.22;44.88;101389.03;8348037;28;20079;-51
2022/08/09 17:05:57;;;;;;;3.00;2.10;;;;;;;29.16;45.49;101374.16;8341351;28;20746;-48
2022/08/09 17:09:58;;;;;;;4.60;2.25;;;;;;;29.22;45.60;101378.75;8343824;28;20098;-50
2022/08/09 17:13:59;;;;;;;3.55;2.15;;;;;;;29.14;45.36;101376.31;8346265;28;20033;-52
2022/08/09 17:17:59;;;;;;;3.47;2.33;;;;;;;28.99;46.07;101377.84;8348563;28;20039;-49
2022/08/09 17:22:00;;;;;;;5.22;2.53;;;;;;;28.92;45.94;101377.97;8348810;28;20040;-48
2022/08/09 17:26:00;;;;;;;4.72;2.30;;;;;;;28.91;45.85;101381.84;8348214;28;20071;-49
2022/08/09 17:30:03;;;;;;;4.10;2.00;;;;;;;28.95;45.96;101384.97;8344888;28;20772;-48
2022/08/09 17:34:03;;;;;;;4.00;2.42;;;;;;;28.85;46.13;101388.38;8338543;28;20041;-48
2022/08/09 17:38:05;;;;;;;6.60;2.23;;;;;;;28.75;46.24;101381.69;8345576;28;20047;-50
2022/08/09 17:42:06;;;;;;;4.05;2.17;;;;;;;28.71;46.42;101381.31;8346418;28;20278;-49
2022/08/09 17:46:07;;;;;;;5.35;2.00;;;;;;;28.66;46.33;101383.94;8347981;28;20513;-51
2022/08/09 17:50:09;;;;;;;3.45;2.47;;;;;;;28.59;46.47;101383.19;8349380;28;20037;-52
2022/08/09 17:54:09;;;;;;;4.60;2.03;;;;;;;28.51;46.87;101394.66;8346647;28;20473;-49
2022/08/09 17:58:16;;;;;;;4.78;2.25;;;;;;;28.47;47.06;101393.44;8345247;28;20094;-48
2022/08/09 18:02:17;;;;;;;2.97;2.10;;;;;;;28.37;47.06;101395.91;8346649;28;20041;-49
2022/08/09 18:06:17;;;;;;;6.57;2.28;;;;;;;28.37;46.75;101401.50;8347410;28;20107;-48
2022/08/09 18:10:17;;;;;;;7.10;2.35;;;;;;;28.27;47.20;101402.03;8348656;28;20036;-48
2022/08/09 18:14:19;;;;;;;7.40;2.20;;;;;;;28.16;47.23;101405.63;8351621;28;20404;-48
2022/08/09 18:18:20;;;;;;;2.83;2.13;;;;;;;28.10;47.40;101411.25;8354165;28;20279;-49
2022/08/09 18:22:20;;;;;;;3.25;2.10;;;;;;;28.02;48.01;101406.00;8354185;28;20470;-49
2022/08/09 18:26:21;;;;;;;2.92;2.13;;;;;;;27.87;48.42;101417.53;8348795;28;20563;-48
2022/08/09 18:30:22;;;;;;;3.88;1.88;;;;;;;27.76;48.63;101418.28;8352156;28;20040;-48
2022/08/09 18:34:22;;;;;;;4.00;2.05;;;;;;;27.71;48.65;101417.25;8352667;28;20169;-48
2022/08/09 18:38:23;;;;;;;3.03;2.10;;;;;;;27.60;48.82;101409.69;8353459;28;20029;-48
2022/08/09 18:42:23;;;;;;;6.25;2.55;;;;;;;27.60;48.89;101415.25;8349642;28;20056;-47
2022/08/09 18:46:24;;;;;;;4.17;2.07;;;;;;;27.49;49.10;101421.56;8352182;28;20040;-48
2022/08/09 18:50:24;;;;;;;3.70;2.20;;;;;;;27.36;49.51;101430.03;8351672;28;20291;-49
2022/08/09 18:54:25;;;;;;;3.92;2.13;;;;;;;27.20;49.82;101419.47;8351002;28;20767;-49
2022/08/09 18:58:25;;;;;;;6.72;2.13;;;;;;;27.06;50.28;101428.97;8352362;28;20489;-49